Time;durP1;ratioP1;P1;durP2;ratioP2;P2;SDS_P1;SDS_P2;PMS_P1;PMS_P2;Temp;Humidity;BMP_temperature;BMP_pressure;BME280_temperature;BME280_humidity;BME280_pressure;Samples;Min_cycle;Max_cycle;Signal;HPM_P1;HPM_P2
2023/02/09 00:01:28;;;;;;;2.20;2.00;;;20.20;53.60;;;;;;6217291;23;20446;-89
2023/02/09 00:03:55;;;;;;;1.80;1.70;;;20.20;53.60;;;;;;6218176;23;20404;-88
2023/02/09 00:06:23;;;;;;;2.23;2.03;;;20.40;53.70;;;;;;6217431;23;20426;-82
2023/02/09 00:08:51;;;;;;;2.87;2.03;;;20.20;53.60;;;;;;6217465;23;20405;-83
2023/02/09 00:11:20;;;;;;;2.80;1.90;;;20.20;53.60;;;;;;6216859;23;20398;-87
2023/02/09 00:13:45;;;;;;;2.20;2.00;;;20.20;53.60;;;;;;6217303;23;20405;-83
2023/02/09 00:16:13;;;;;;;2.43;2.23;;;20.20;53.60;;;;;;6217448;23;20398;-83
2023/02/09 00:18:40;;;;;;;2.47;2.27;;;20.20;53.60;;;;;;6217246;23;20170;-83
2023/02/09 00:21:09;;;;;;;2.00;1.80;;;20.20;53.60;;;;;;6217134;23;20420;-83
2023/02/09 00:23:38;;;;;;;2.33;2.13;;;20.20;53.60;;;;;;6217176;23;20409;-87
2023/02/09 00:26:08;;;;;;;2.17;1.83;;;20.20;53.60;;;;;;6216927;23;20903;-82
2023/02/09 00:28:35;;;;;;;2.30;2.10;;;20.20;53.60;;;;;;6217202;23;20402;-82
2023/02/09 00:31:06;;;;;;;2.40;1.97;;;20.10;53.50;;;;;;6217375;23;20413;-82
2023/02/09 00:33:33;;;;;;;2.20;2.00;;;20.10;53.50;;;;;;6216841;23;20861;-82
2023/02/09 00:36:00;;;;;;;2.93;2.30;;;20.20;53.60;;;;;;6217784;23;20402;-88
2023/02/09 00:38:27;;;;;;;2.60;2.23;;;20.10;53.50;;;;;;6217275;23;20436;-83
2023/02/09 00:40:54;;;;;;;2.47;2.27;;;20.10;53.50;;;;;;6217053;23;20402;-83
2023/02/09 00:43:22;;;;;;;1.80;1.70;;;20.10;53.50;;;;;;6216916;23;20443;-88
2023/02/09 00:45:48;;;;;;;2.03;1.93;;;20.10;53.50;;;;;;6216982;23;20406;-83
2023/02/09 00:48:15;;;;;;;1.93;1.83;;;20.10;53.50;;;;;;6216978;23;20402;-83
2023/02/09 00:50:42;;;;;;;2.07;1.97;;;20.10;53.50;;;;;;6216588;23;20453;-83
2023/02/09 00:53:09;;;;;;;2.23;1.87;;;20.10;53.50;;;;;;6216596;23;20412;-83
2023/02/09 00:55:35;;;;;;;2.13;1.93;;;20.10;53.40;;;;;;6216486;23;20409;-83
2023/02/09 00:58:02;;;;;;;2.30;2.10;;;20.10;53.40;;;;;;6216871;23;20409;-87
2023/02/09 01:00:30;;;;;;;3.83;2.27;;;20.10;53.50;;;;;;6216490;23;20406;-83
2023/02/09 01:02:57;;;;;;;1.67;1.57;;;20.10;53.50;;;;;;6216759;23;20541;-83
2023/02/09 01:05:24;;;;;;;2.20;2.00;;;20.10;53.40;;;;;;6216503;23;20402;-86
2023/02/09 01:07:51;;;;;;;2.30;2.10;;;20.10;53.40;;;;;;6216437;23;20405;-82
2023/02/09 01:10:18;;;;;;;2.00;1.80;;;20.00;53.40;;;;;;6216870;23;20401;-83
2023/02/09 01:12:45;;;;;;;1.57;1.47;;;20.00;53.40;;;;;;6216735;23;20423;-85
2023/02/09 01:15:13;;;;;;;2.47;2.27;;;20.10;53.40;;;;;;6216793;23;20408;-83
2023/02/09 01:17:41;;;;;;;1.90;1.80;;;20.10;53.40;;;;;;6216721;23;20404;-83
2023/02/09 01:20:10;;;;;;;1.83;1.73;;;20.10;53.40;;;;;;6217370;23;20896;-83
2023/02/09 01:22:37;;;;;;;1.93;1.67;;;20.00;53.30;;;;;;6216450;23;20446;-82
2023/02/09 01:25:05;;;;;;;2.10;1.97;;;20.00;53.30;;;;;;6216420;23;20402;-88
2023/02/09 01:27:31;;;;;;;1.87;1.77;;;20.00;53.30;;;;;;6216270;23;20408;-83
2023/02/09 01:29:58;;;;;;;2.00;1.90;;;20.00;53.30;;;;;;6216603;23;20504;-83
2023/02/09 01:32:25;;;;;;;2.57;2.37;;;20.00;53.30;;;;;;6216694;23;20404;-83
2023/02/09 01:34:54;;;;;;;2.70;2.07;;;20.00;53.30;;;;;;6216530;23;20404;-88
2023/02/09 01:37:21;;;;;;;2.03;1.93;;;20.00;53.30;;;;;;6216004;23;20437;-88
2023/02/09 01:39:48;;;;;;;1.90;1.80;;;20.00;53.30;;;;;;6216543;23;20390;-87
2023/02/09 01:42:15;;;;;;;2.13;1.93;;;20.00;53.30;;;;;;6215850;23;20446;-83
2023/02/09 01:45:15;;;;;;;2.37;2.00;;;20.00;53.30;;;;;;6217177;23;20406;-84
2023/02/09 01:47:46;;;;;;;2.30;2.10;;;20.10;53.40;;;;;;6210836;23;20714;-83
2023/02/09 01:50:15;;;;;;;1.63;1.53;;;20.00;53.30;;;;;;6216562;23;20436;-88
2023/02/09 01:52:43;;;;;;;2.27;2.07;;;20.00;53.30;;;;;;6216487;23;20701;-88
2023/02/09 01:55:12;;;;;;;1.90;1.80;;;20.00;53.30;;;;;;6216446;23;20501;-83
2023/02/09 01:57:45;;;;;;;2.13;1.70;;;19.90;53.20;;;;;;6216434;23;20724;-83
2023/02/09 02:00:15;;;;;;;2.30;2.10;;;20.00;53.30;;;;;;6216458;23;20392;-83
2023/02/09 02:02:44;;;;;;;2.30;2.10;;;20.00;53.20;;;;;;6216611;23;20468;-83
2023/02/09 02:08:39;;;;;;;2.00;1.90;;;20.00;53.20;;;;;;6216887;23;20365;-89
2023/02/09 02:11:07;;;;;;;2.23;2.03;;;19.90;53.20;;;;;;6216394;23;20390;-84
2023/02/09 02:13:33;;;;;;;2.30;2.10;;;19.90;53.30;;;;;;6216277;23;20398;-83
2023/02/09 02:16:06;;;;;;;2.10;1.90;;;19.90;53.20;;;;;;6216942;23;20489;-83
2023/02/09 02:19:01;;;;;;;2.20;2.00;;;19.90;53.20;;;;;;6216411;23;20405;-83
2023/02/09 02:22:05;;;;;;;2.37;2.27;;;19.90;53.20;;;;;;6216300;23;20386;-83
2023/02/09 02:24:58;;;;;;;2.30;2.10;;;19.90;53.20;;;;;;6153599;23;20414;-83
2023/02/09 02:27:31;;;;;;;1.90;1.73;;;19.90;53.20;;;;;;6216358;23;20393;-82
2023/02/09 02:30:22;;;;;;;2.27;1.90;;;19.90;53.20;;;;;;6216324;23;20386;-83
2023/02/09 02:32:59;;;;;;;2.10;1.83;;;19.90;53.20;;;;;;6215181;23;20402;-83
2023/02/09 02:35:33;;;;;;;1.70;1.60;;;19.90;53.20;;;;;;6217948;23;20386;-89
2023/02/09 02:38:06;;;;;;;2.03;1.93;;;19.90;53.20;;;;;;6218366;23;20422;-87
2023/02/09 02:40:42;;;;;;;2.27;2.10;;;19.90;53.20;;;;;;6218327;23;20785;-83
2023/02/09 02:43:19;;;;;;;1.60;1.50;;;19.90;53.20;;;;;;6218763;23;20437;-88
2023/02/09 02:45:49;;;;;;;2.10;2.00;;;19.90;53.20;;;;;;6218225;23;20417;-88
2023/02/09 02:48:27;;;;;;;2.03;1.93;;;19.90;53.20;;;;;;6219143;23;20401;-82
2023/02/09 02:50:57;;;;;;;1.70;1.60;;;19.90;53.20;;;;;;6218186;23;20384;-82
2023/02/09 02:53:29;;;;;;;2.00;1.90;;;19.80;53.10;;;;;;6218522;23;20389;-89
2023/02/09 02:55:59;;;;;;;2.30;2.10;;;19.80;53.10;;;;;;6218173;23;20762;-88
2023/02/09 02:58:28;;;;;;;2.43;2.23;;;19.80;53.10;;;;;;6218773;23;20421;-82
2023/02/09 03:01:00;;;;;;;2.00;1.80;;;19.90;53.20;;;;;;6218734;23;20408;-88
2023/02/09 03:03:32;;;;;;;2.37;2.17;;;19.80;53.10;;;;;;6218041;23;20433;-88
2023/02/09 03:06:03;;;;;;;1.80;1.70;;;19.80;53.10;;;;;;6217975;23;20892;-83
2023/02/09 03:08:30;;;;;;;1.90;1.80;;;19.80;53.10;;;;;;6218361;23;20873;-82
2023/02/09 03:10:57;;;;;;;2.13;1.90;;;19.80;53.00;;;;;;6217863;23;20910;-88
2023/02/09 03:13:40;;;;;;;2.00;1.90;;;19.80;53.10;;;;;;6217901;23;20402;-84
2023/02/09 03:16:18;;;;;;;2.17;1.90;;;19.80;53.00;;;;;;6217959;23;20389;-86
2023/02/09 03:19:05;;;;;;;2.10;2.00;;;20.00;53.20;;;;;;6217920;23;20386;-83
2023/02/09 03:21:41;;;;;;;2.33;2.13;;;19.80;53.00;;;;;;6217479;23;20402;-82
2023/02/09 03:24:15;;;;;;;2.13;1.93;;;19.80;53.00;;;;;;6217374;23;20433;-83
2023/02/09 03:26:49;;;;;;;1.77;1.67;;;19.80;53.00;;;;;;6217796;23;20394;-83
2023/02/09 03:29:17;;;;;;;1.70;1.60;;;19.80;53.10;;;;;;6217842;23;20377;-89
2023/02/09 03:31:46;;;;;;;2.70;2.50;;;19.80;53.00;;;;;;6217680;23;20401;-89
2023/02/09 03:34:15;;;;;;;1.80;1.70;;;19.70;53.00;;;;;;6217772;23;20402;-82
2023/02/09 03:36:42;;;;;;;2.30;2.10;;;19.80;53.00;;;;;;6217438;23;20728;-87
2023/02/09 03:39:09;;;;;;;2.13;1.93;;;19.70;53.00;;;;;;6217719;23;20390;-87
2023/02/09 03:41:37;;;;;;;1.87;1.77;;;19.80;53.00;;;;;;6217745;23;20420;-88
2023/02/09 03:46:50;;;;;;;2.10;2.00;;;19.70;53.00;;;;;;6209688;23;20394;-83
2023/02/09 03:49:18;;;;;;;3.30;2.10;;;19.70;53.00;;;;;;6218196;23;20405;-83
2023/02/09 03:51:45;;;;;;;2.20;2.00;;;19.70;53.60;;;;;;6217580;23;20406;-83
2023/02/09 03:54:12;;;;;;;2.30;2.10;;;19.70;53.00;;;;;;6217749;23;20914;-84
2023/02/09 03:56:38;;;;;;;1.90;1.80;;;19.70;53.00;;;;;;6217608;23;20489;-87
2023/02/09 03:59:06;;;;;;;1.63;1.53;;;19.70;53.00;;;;;;6218123;23;20410;-84
2023/02/09 04:01:33;;;;;;;1.80;1.70;;;19.70;53.00;;;;;;6218154;23;20480;-87
2023/02/09 04:04:00;;;;;;;2.13;1.93;;;19.70;53.00;;;;;;6218806;23;20495;-83
2023/02/09 04:06:31;;;;;;;2.30;2.10;;;19.70;53.00;;;;;;6217500;23;20406;-83
2023/02/09 04:08:58;;;;;;;1.83;1.73;;;19.70;53.00;;;;;;6217656;23;20460;-89
2023/02/09 04:11:24;;;;;;;2.57;2.37;;;19.80;53.00;;;;;;6217260;23;20398;-84
2023/02/09 04:13:51;;;;;;;2.20;2.00;;;19.70;53.00;;;;;;6217519;23;20398;-83
2023/02/09 04:16:18;;;;;;;2.20;2.10;;;19.70;53.00;;;;;;6217424;23;20405;-84
2023/02/09 04:18:45;;;;;;;2.00;1.70;;;19.70;53.00;;;;;;6217471;23;20398;-83
2023/02/09 04:21:13;;;;;;;2.10;2.00;;;19.70;53.00;;;;;;6217167;23;20931;-83
2023/02/09 04:23:41;;;;;;;2.17;2.00;;;19.70;53.00;;;;;;6217156;23;20442;-84
2023/02/09 04:26:08;;;;;;;1.80;1.70;;;19.70;53.00;;;;;;6216969;23;20414;-84
2023/02/09 04:28:35;;;;;;;2.40;2.20;;;19.70;53.00;;;;;;6218309;23;20404;-84
2023/02/09 04:31:02;;;;;;;1.90;1.80;;;19.70;53.00;;;;;;6217398;23;20406;-89
2023/02/09 04:33:29;;;;;;;2.00;1.90;;;19.70;53.00;;;;;;6216908;23;20406;-84
2023/02/09 04:35:56;;;;;;;2.00;1.80;;;19.60;53.00;;;;;;6217363;23;20412;-83
2023/02/09 04:38:23;;;;;;;2.10;1.93;;;19.60;53.00;;;;;;6216958;23;20438;-84
2023/02/09 04:40:53;;;;;;;2.30;2.10;;;19.60;53.00;;;;;;6217214;23;20721;-88
2023/02/09 04:43:20;;;;;;;2.23;2.03;;;19.60;53.00;;;;;;6217150;23;20446;-83
2023/02/09 04:45:46;;;;;;;1.80;1.70;;;19.60;52.90;;;;;;6217217;23;20694;-83
2023/02/09 04:48:15;;;;;;;1.57;1.47;;;19.60;52.90;;;;;;6217134;23;20719;-83
2023/02/09 04:50:43;;;;;;;1.83;1.73;;;19.60;52.90;;;;;;6217184;23;20708;-83
2023/02/09 04:53:10;;;;;;;2.00;1.80;;;19.60;52.90;;;;;;6217146;23;20795;-83
2023/02/09 04:55:37;;;;;;;2.00;1.90;;;19.60;52.90;;;;;;6217114;23;20461;-86
2023/02/09 05:00:59;;;;;;;1.90;1.80;;;19.60;52.90;;;;;;6163501;23;20390;-87
2023/02/09 05:03:26;;;;;;;2.50;2.30;;;19.60;52.90;;;;;;6217113;23;20750;-83
2023/02/09 05:05:55;;;;;;;2.17;1.97;;;19.60;52.90;;;;;;6217089;23;20426;-89
2023/02/09 05:08:22;;;;;;;1.80;1.70;;;19.60;53.00;;;;;;6216848;23;20402;-88
2023/02/09 05:10:49;;;;;;;2.00;1.90;;;19.60;52.90;;;;;;6217209;23;20408;-84
2023/02/09 05:13:18;;;;;;;2.10;2.00;;;19.60;52.90;;;;;;6217247;23;20401;-83
2023/02/09 05:15:44;;;;;;;2.10;2.00;;;19.60;52.90;;;;;;6216896;23;20405;-83
2023/02/09 05:18:11;;;;;;;2.07;1.97;;;19.60;52.90;;;;;;6217204;23;20408;-89
2023/02/09 05:20:38;;;;;;;2.10;1.90;;;19.60;52.90;;;;;;6217392;23;20776;-84
2023/02/09 05:23:05;;;;;;;1.70;1.60;;;19.60;52.90;;;;;;6217093;23;20743;-83
2023/02/09 05:25:32;;;;;;;2.00;1.90;;;19.60;52.90;;;;;;6216938;23;20409;-83
2023/02/09 05:27:58;;;;;;;2.00;1.80;;;19.60;52.90;;;;;;6217772;23;20402;-83
2023/02/09 05:30:27;;;;;;;2.07;1.90;;;19.60;52.90;;;;;;6217072;23;20799;-83
2023/02/09 05:32:54;;;;;;;2.20;2.00;;;19.60;52.90;;;;;;6217000;23;20485;-83
2023/02/09 05:38:43;;;;;;;2.53;2.33;;;19.60;52.80;;;;;;6215589;23;20417;-84
2023/02/09 05:42:13;;;;;;;2.63;2.43;;;19.50;52.90;;;;;;6216721;23;20881;-83
2023/02/09 05:43:59;;;;;;;1.87;1.77;;;19.50;52.90;;;;;;6216428;23;20438;-86
2023/02/09 05:46:27;;;;;;;1.97;1.87;;;19.50;52.90;;;;;;6217109;23;20400;-84
2023/02/09 05:48:54;;;;;;;2.13;1.93;;;19.70;53.00;;;;;;6216576;23;20887;-88
2023/02/09 05:51:21;;;;;;;2.40;2.20;;;19.50;52.80;;;;;;6216808;23;20394;-83
2023/02/09 05:53:48;;;;;;;2.30;2.10;;;19.50;52.90;;;;;;6216898;23;20408;-89
2023/02/09 05:56:15;;;;;;;2.33;2.13;;;19.50;52.80;;;;;;6216708;23;20968;-84
2023/02/09 05:58:41;;;;;;;2.27;2.07;;;19.50;52.80;;;;;;6217427;23;20416;-84
2023/02/09 06:01:08;;;;;;;2.17;2.00;;;19.50;52.90;;;;;;6217527;23;20408;-86
2023/02/09 06:03:36;;;;;;;2.00;1.87;;;19.50;52.90;;;;;;6217095;23;20442;-85
2023/02/09 06:06:03;;;;;;;2.60;2.40;;;19.50;52.90;;;;;;6216856;23;20406;-89
2023/02/09 06:08:30;;;;;;;2.17;2.00;;;19.50;52.90;;;;;;6217052;23;20704;-85
2023/02/09 06:10:57;;;;;;;1.90;1.80;;;19.50;52.90;;;;;;6219886;23;20401;-89
2023/02/09 06:13:24;;;;;;;2.10;1.90;;;19.50;52.90;;;;;;6217618;23;20408;-83
2023/02/09 06:15:51;;;;;;;2.33;2.17;;;19.50;52.90;;;;;;6218682;23;20401;-84
2023/02/09 06:18:18;;;;;;;2.17;1.97;;;19.50;52.90;;;;;;6218136;23;20402;-82
2023/02/09 06:20:47;;;;;;;2.40;2.20;;;19.50;52.90;;;;;;6217808;23;20444;-89
2023/02/09 06:23:17;;;;;;;1.70;1.60;;;19.50;52.90;;;;;;6220843;23;20434;-82
2023/02/09 06:25:43;;;;;;;2.30;2.10;;;19.50;52.90;;;;;;6222635;23;20493;-83
2023/02/09 06:28:10;;;;;;;2.83;2.63;;;19.40;52.80;;;;;;6222326;23;20408;-83
2023/02/09 06:30:37;;;;;;;1.70;1.60;;;19.40;52.80;;;;;;6218596;23;20406;-84
2023/02/09 06:33:05;;;;;;;3.00;2.57;;;19.40;52.80;;;;;;6217736;23;20410;-88
2023/02/09 06:35:32;;;;;;;2.10;2.00;;;19.40;52.80;;;;;;6216924;23;20398;-83
2023/02/09 06:38:00;;;;;;;1.70;1.60;;;19.40;52.80;;;;;;6217207;23;20430;-90
2023/02/09 06:40:27;;;;;;;2.77;2.00;;;19.40;52.80;;;;;;6216465;23;20394;-84
2023/02/09 06:42:53;;;;;;;2.50;2.30;;;19.40;52.80;;;;;;6217534;23;20401;-90
2023/02/09 06:45:20;;;;;;;1.90;1.80;;;19.40;52.80;;;;;;6216777;23;20531;-85
2023/02/09 06:47:48;;;;;;;2.30;2.10;;;19.40;52.80;;;;;;6216223;23;20497;-84
2023/02/09 06:50:16;;;;;;;1.87;1.77;;;19.40;52.80;;;;;;6216633;23;20409;-87
2023/02/09 06:52:45;;;;;;;2.53;2.10;;;19.40;52.80;;;;;;6217023;23;20891;-84
2023/02/09 06:55:13;;;;;;;2.03;1.50;;;19.40;52.80;;;;;;6215859;23;20427;-89
2023/02/09 06:57:40;;;;;;;2.47;2.20;;;19.60;52.90;;;;;;6216447;23;20501;-85
2023/02/09 07:00:09;;;;;;;2.37;2.17;;;19.40;52.60;;;;;;6216469;23;20705;-92
2023/02/09 07:02:36;;;;;;;4.70;2.77;;;19.40;52.70;;;;;;6219376;23;20721;-83
2023/02/09 07:05:03;;;;;;;2.67;2.47;;;19.40;52.80;;;;;;6223748;23;20448;-83
2023/02/09 07:07:30;;;;;;;2.50;1.87;;;19.40;52.70;;;;;;6222909;23;20971;-81
2023/02/09 07:09:57;;;;;;;3.60;2.50;;;19.40;52.80;;;;;;6219359;23;20460;-83
2023/02/09 07:12:25;;;;;;;3.60;2.50;;;19.60;53.00;;;;;;6217257;23;20723;-91
2023/02/09 07:14:52;;;;;;;2.20;2.00;;;19.40;52.80;;;;;;6217217;23;20734;-91
2023/02/09 07:17:19;;;;;;;3.07;2.20;;;19.40;53.00;;;;;;6216574;23;20401;-83
2023/02/09 07:19:46;;;;;;;2.53;2.33;;;19.40;53.10;;;;;;6217666;23;20861;-83
2023/02/09 07:22:13;;;;;;;2.70;2.23;;;19.40;53.20;;;;;;6218533;23;20398;-83
2023/02/09 07:24:39;;;;;;;2.30;2.20;;;19.40;53.30;;;;;;6218519;23;20524;-92
2023/02/09 07:27:07;;;;;;;4.90;2.90;;;19.40;53.30;;;;;;6218812;23;20485;-83
2023/02/09 07:29:35;;;;;;;2.07;1.87;;;19.40;53.30;;;;;;6219045;23;20421;-90
2023/02/09 07:32:02;;;;;;;2.63;2.10;;;19.40;53.30;;;;;;6218054;23;20398;-84
2023/02/09 07:34:30;;;;;;;2.10;1.90;;;19.40;53.40;;;;;;6217606;23;20397;-92
2023/02/09 07:36:56;;;;;;;2.40;2.10;;;19.40;54.00;;;;;;6218515;23;20394;-85
2023/02/09 07:39:24;;;;;;;4.57;2.13;;;19.40;53.40;;;;;;6217236;23;20428;-83
2023/02/09 07:41:50;;;;;;;1.90;1.80;;;19.40;53.40;;;;;;6217735;23;20402;-84
2023/02/09 07:44:17;;;;;;;2.17;2.07;;;19.40;53.40;;;;;;6217258;23;20532;-91
2023/02/09 07:46:46;;;;;;;3.60;2.07;;;19.50;53.50;;;;;;6217691;23;20489;-86
2023/02/09 07:49:12;;;;;;;1.90;1.80;;;19.40;53.40;;;;;;6217602;23;20406;-83
2023/02/09 07:51:40;;;;;;;2.03;1.83;;;19.40;53.40;;;;;;6217810;23;20723;-85
2023/02/09 07:54:08;;;;;;;2.30;2.10;;;19.40;53.20;;;;;;6218114;23;20402;-85
2023/02/09 07:56:35;;;;;;;2.77;1.90;;;19.60;53.50;;;;;;6217703;23;20460;-84
2023/02/09 07:59:01;;;;;;;2.33;2.23;;;19.40;53.30;;;;;;6217837;23;20402;-90
2023/02/09 08:01:28;;;;;;;2.40;2.20;;;19.40;53.40;;;;;;6218035;23;20399;-92
2023/02/09 08:03:56;;;;;;;2.20;2.00;;;19.40;53.40;;;;;;6217842;23;20444;-84
2023/02/09 08:06:29;;;;;;;2.40;2.20;;;19.40;53.40;;;;;;6217535;23;20402;-93
2023/02/09 08:08:56;;;;;;;2.20;2.00;;;19.40;53.40;;;;;;6217923;23;20388;-92
2023/02/09 08:11:27;;;;;;;2.33;2.13;;;19.40;53.40;;;;;;6217731;23;20402;-84
2023/02/09 08:13:56;;;;;;;3.30;2.23;;;19.40;53.40;;;;;;6217484;23;20390;-92
2023/02/09 08:16:27;;;;;;;2.47;2.17;;;19.40;53.40;;;;;;6217549;23;20500;-85
2023/02/09 08:19:01;;;;;;;2.40;2.20;;;19.40;53.30;;;;;;6217549;23;20402;-84
2023/02/09 08:21:28;;;;;;;2.87;2.67;;;19.50;53.10;;;;;;6217549;23;20719;-85
2023/02/09 08:23:57;;;;;;;2.83;2.63;;;19.50;53.20;;;;;;6216695;23;20441;-85
2023/02/09 08:26:24;;;;;;;2.30;2.10;;;19.50;53.20;;;;;;6217597;23;20485;-87
2023/02/09 08:28:51;;;;;;;2.57;2.30;;;19.50;53.30;;;;;;6217980;23;20869;-84
2023/02/09 08:31:20;;;;;;;2.80;2.60;;;19.50;53.40;;;;;;6217090;23;20398;-86
2023/02/09 08:33:48;;;;;;;4.60;2.93;;;19.70;53.20;;;;;;6218535;23;20707;-84
2023/02/09 08:36:18;;;;;;;7.00;4.50;;;19.70;53.40;;;;;;6217763;23;20290;-90
2023/02/09 08:38:46;;;;;;;9.30;5.07;;;19.70;52.40;;;;;;6217321;23;20194;-83
2023/02/09 08:44:38;;;;;;;6.70;3.60;;;19.60;50.80;;;;;;6217782;23;20429;-83
2023/02/09 08:47:04;;;;;;;4.57;4.17;;;19.60;51.80;;;;;;6217682;23;20493;-88
2023/02/09 08:49:31;;;;;;;8.93;4.30;;;19.60;52.30;;;;;;6217683;23;20428;-81
2023/02/09 08:51:59;;;;;;;5.33;4.00;;;19.70;52.30;;;;;;6217974;23;20411;-86
2023/02/09 08:54:26;;;;;;;4.70;3.33;;;19.80;52.40;;;;;;6217790;23;20398;-90
2023/02/09 08:56:53;;;;;;;6.23;4.17;;;19.90;52.20;;;;;;6218111;23;20398;-82
2023/02/09 08:59:20;;;;;;;7.07;3.50;;;20.00;52.30;;;;;;6218219;23;20454;-88
2023/02/09 09:01:47;;;;;;;4.30;3.90;;;20.00;52.10;;;;;;6218675;23;20402;-88
2023/02/09 09:04:14;;;;;;;11.27;4.03;;;20.30;52.00;;;;;;6219640;23;20434;-81
2023/02/09 09:06:41;;;;;;;6.30;3.80;;;20.10;52.60;;;;;;6218310;23;20412;-82
2023/02/09 09:09:09;;;;;;;23.60;4.73;;;20.20;52.00;;;;;;6222003;23;20405;-81
2023/02/09 09:11:36;;;;;;;5.50;3.73;;;20.30;51.90;;;;;;6228206;23;20411;-84
2023/02/09 09:14:03;;;;;;;9.33;5.53;;;20.40;51.50;;;;;;6223381;23;20402;-84
2023/02/09 09:16:31;;;;;;;5.47;3.67;;;20.50;51.00;;;;;;6215866;23;20408;-91
2023/02/09 09:18:58;;;;;;;8.40;3.80;;;20.60;50.80;;;;;;6216467;23;20915;-83
2023/02/09 09:21:25;;;;;;;5.23;3.50;;;20.70;50.60;;;;;;6216528;23;20406;-83
2023/02/09 09:23:52;;;;;;;6.80;3.70;;;20.90;50.80;;;;;;6216722;23;20728;-91
2023/02/09 09:26:20;;;;;;;3.67;3.27;;;21.00;50.60;;;;;;6216501;23;20913;-86
2023/02/09 09:28:49;;;;;;;5.27;3.80;;;21.20;50.30;;;;;;6216521;23;20887;-90
2023/02/09 09:31:17;;;;;;;6.97;3.33;;;21.20;50.30;;;;;;6216579;23;20449;-84
2023/02/09 09:33:45;;;;;;;4.90;3.17;;;21.20;50.40;;;;;;6216489;23;20893;-90
2023/02/09 09:36:13;;;;;;;7.17;4.20;;;21.20;50.20;;;;;;6216668;23;20406;-83
2023/02/09 09:38:41;;;;;;;6.40;3.40;;;21.20;50.10;;;;;;6216353;23;20434;-90
2023/02/09 09:41:22;;;;;;;8.43;3.70;;;21.30;50.00;;;;;;6216423;23;20405;-88
2023/02/09 09:43:50;;;;;;;8.93;3.77;;;21.60;49.90;;;;;;6216634;23;20394;-83
2023/02/09 09:46:20;;;;;;;4.37;3.30;;;21.80;49.50;;;;;;6216582;23;20457;-82
2023/02/09 09:48:50;;;;;;;6.27;3.60;;;22.00;49.20;;;;;;6216806;23;20434;-82
2023/02/09 09:51:20;;;;;;;4.97;3.20;;;22.20;48.90;;;;;;6216718;23;20391;-82
2023/02/09 09:53:50;;;;;;;8.43;3.40;;;22.40;48.70;;;;;;6217349;23;20402;-83
2023/02/09 09:56:19;;;;;;;4.53;3.37;;;22.60;49.00;;;;;;6216666;23;20409;-83
2023/02/09 09:58:50;;;;;;;8.20;3.57;;;22.70;49.00;;;;;;6216809;23;20402;-83
2023/02/09 10:01:19;;;;;;;3.70;3.10;;;22.80;49.10;;;;;;6216513;23;20383;-82
2023/02/09 10:03:47;;;;;;;3.70;3.40;;;22.90;49.00;;;;;;6216838;23;20452;-88
2023/02/09 10:06:16;;;;;;;5.23;3.30;;;23.00;49.10;;;;;;6216516;23;20453;-83
2023/02/09 10:08:50;;;;;;;8.67;4.20;;;23.00;49.00;;;;;;6216556;23;20407;-83
2023/02/09 10:11:20;;;;;;;3.63;3.00;;;23.10;49.00;;;;;;6216690;23;20391;-88
2023/02/09 10:13:51;;;;;;;5.10;3.47;;;23.20;49.00;;;;;;6216764;23;20409;-88
2023/02/09 10:16:23;;;;;;;5.37;3.10;;;23.30;49.00;;;;;;6216702;23;20394;-84
2023/02/09 10:18:53;;;;;;;7.00;3.60;;;23.30;49.60;;;;;;6216160;23;20406;-88
2023/02/09 10:21:20;;;;;;;5.50;3.70;;;23.50;48.90;;;;;;6216785;23;20403;-90
2023/02/09 10:23:49;;;;;;;4.87;3.60;;;23.50;48.30;;;;;;6216173;23;20490;-90
2023/02/09 10:26:23;;;;;;;10.93;3.37;;;23.60;47.10;;;;;;6216072;23;20980;-84
2023/02/09 10:28:53;;;;;;;4.87;3.80;;;23.60;48.30;;;;;;6216641;23;20383;-84
2023/02/09 10:31:26;;;;;;;3.83;3.30;;;23.70;48.30;;;;;;6216691;23;20905;-85
2023/02/09 10:33:57;;;;;;;4.70;3.50;;;23.90;48.20;;;;;;6216779;23;20394;-84
2023/02/09 10:36:27;;;;;;;6.00;3.60;;;24.00;48.00;;;;;;6217307;23;20391;-84
2023/02/09 10:39:04;;;;;;;3.43;3.13;;;24.00;48.00;;;;;;6216889;23;20442;-84
2023/02/09 10:41:33;;;;;;;3.83;3.40;;;24.00;48.00;;;;;;6216511;23;20388;-91
2023/02/09 10:44:06;;;;;;;4.13;3.10;;;24.00;48.10;;;;;;6216282;23;20415;-82
2023/02/09 10:46:33;;;;;;;3.10;2.77;;;23.70;48.30;;;;;;6216390;23;20436;-82
2023/02/09 10:52:24;;;;;;;6.73;3.37;;;23.20;48.80;;;;;;6216974;23;20732;-82
2023/02/09 10:54:55;;;;;;;6.20;3.63;;;23.00;49.20;;;;;;6216726;23;20887;-83
2023/02/09 10:57:26;;;;;;;5.90;3.50;;;22.80;49.40;;;;;;6218893;23;20397;-86
2023/02/09 10:59:56;;;;;;;5.63;3.07;;;22.70;49.60;;;;;;6218943;23;20391;-83
2023/02/09 11:02:35;;;;;;;5.93;3.50;;;22.60;49.80;;;;;;6218435;23;20894;-82
2023/02/09 11:05:02;;;;;;;4.57;3.10;;;22.70;50.10;;;;;;6218570;23;20443;-83
2023/02/09 11:07:36;;;;;;;3.50;3.20;;;22.40;50.10;;;;;;6218887;23;20508;-84
2023/02/09 11:10:05;;;;;;;6.90;3.30;;;22.30;50.10;;;;;;6218212;23;20418;-83
2023/02/09 11:12:32;;;;;;;7.53;3.30;;;22.30;50.30;;;;;;6218503;23;20780;-82
2023/02/09 11:15:01;;;;;;;6.07;3.47;;;22.20;50.30;;;;;;6218944;23;20421;-82
2023/02/09 11:17:35;;;;;;;8.83;3.23;;;22.20;50.40;;;;;;6218392;23;20409;-83
2023/02/09 11:20:19;;;;;;;7.00;3.20;;;22.10;50.50;;;;;;6218115;23;20388;-84
2023/02/09 11:23:14;;;;;;;9.00;2.77;;;22.10;50.60;;;;;;6219317;23;20390;-88
2023/02/09 11:25:49;;;;;;;7.03;3.40;;;22.10;50.70;;;;;;6218073;23;20430;-83
2023/02/09 11:28:30;;;;;;;4.77;3.40;;;22.10;50.80;;;;;;6218420;23;20388;-83
2023/02/09 11:31:20;;;;;;;5.43;2.80;;;22.10;50.90;;;;;;6217765;23;20391;-84
2023/02/09 11:33:57;;;;;;;3.50;3.20;;;22.10;51.50;;;;;;6218413;23;20708;-91
2023/02/09 11:36:40;;;;;;;3.60;3.30;;;22.00;51.00;;;;;;6219205;23;20409;-84
2023/02/09 11:39:13;;;;;;;3.33;3.03;;;22.00;51.00;;;;;;6217838;23;20762;-90
2023/02/09 11:44:34;;;;;;;9.30;3.30;;;22.00;51.20;;;;;;6218371;23;20853;-83
2023/02/09 11:47:06;;;;;;;5.20;3.70;;;22.00;51.20;;;;;;6219074;23;20489;-84
2023/02/09 11:49:41;;;;;;;4.13;3.40;;;21.90;51.30;;;;;;6219384;23;20388;-84
2023/02/09 11:52:13;;;;;;;3.17;2.67;;;21.80;51.50;;;;;;6231342;23;20382;-85
2023/02/09 11:54:40;;;;;;;5.13;3.17;;;21.80;51.50;;;;;;6243160;23;20386;-83
2023/02/09 11:57:20;;;;;;;4.80;2.80;;;21.90;51.60;;;;;;6227295;23;20417;-90
2023/02/09 11:59:55;;;;;;;5.03;2.50;;;21.80;51.60;;;;;;6218077;23;20401;-87
2023/02/09 12:02:40;;;;;;;6.17;3.13;;;21.80;51.70;;;;;;6217989;23;20841;-90
2023/02/09 12:05:12;;;;;;;2.83;2.60;;;21.80;51.80;;;;;;6217650;23;20745;-92
2023/02/09 12:07:47;;;;;;;2.90;2.60;;;21.80;51.90;;;;;;6217132;23;20392;-80
2023/02/09 12:10:23;;;;;;;4.93;3.40;;;21.80;51.20;;;;;;6218084;23;20489;-84
2023/02/09 12:12:57;;;;;;;4.20;3.03;;;21.70;51.70;;;;;;6217239;23;20389;-89
2023/02/09 12:15:27;;;;;;;2.70;2.50;;;21.70;51.70;;;;;;6217180;23;20441;-84
2023/02/09 12:17:58;;;;;;;5.30;3.27;;;21.70;51.70;;;;;;6217492;23;20411;-84
2023/02/09 12:20:29;;;;;;;4.63;2.73;;;21.70;51.80;;;;;;6217798;23;20393;-89
2023/02/09 12:23:00;;;;;;;4.40;3.37;;;21.70;51.80;;;;;;6218041;23;20441;-90
2023/02/09 12:25:48;;;;;;;6.00;3.00;;;21.70;51.80;;;;;;6217473;23;20470;-90
2023/02/09 12:28:36;;;;;;;3.93;2.37;;;21.70;51.90;;;;;;6217585;23;20389;-84
2023/02/09 12:31:18;;;;;;;3.50;2.90;;;21.70;52.00;;;;;;6217484;23;20402;-84
2023/02/09 12:34:14;;;;;;;3.77;3.40;;;21.60;52.00;;;;;;6217648;23;20394;-86
2023/02/09 12:37:01;;;;;;;4.57;2.93;;;21.60;52.10;;;;;;6231905;23;20389;-84
2023/02/09 12:39:30;;;;;;;3.37;2.90;;;21.60;52.10;;;;;;6230937;23;20835;-84
2023/02/09 12:42:30;;;;;;;4.17;2.80;;;21.60;52.20;;;;;;6228784;23;20406;-90
2023/02/09 12:44:59;;;;;;;3.37;2.60;;;21.60;52.30;;;;;;6211745;23;20952;-85
2023/02/09 12:47:54;;;;;;;2.90;2.60;;;21.60;52.30;;;;;;6216852;23;20402;-87
2023/02/09 12:50:49;;;;;;;3.60;3.00;;;21.60;52.30;;;;;;6217319;23;20382;-84
2023/02/09 12:53:46;;;;;;;3.37;2.90;;;21.60;52.30;;;;;;6217568;23;20392;-85
2023/02/09 12:56:32;;;;;;;3.67;2.83;;;21.60;52.50;;;;;;6217806;23;20404;-85
2023/02/09 12:59:20;;;;;;;5.00;3.40;;;21.60;52.80;;;;;;6216760;23;20878;-90
2023/02/09 13:02:16;;;;;;;4.67;3.40;;;21.60;52.70;;;;;;6217087;23;20690;-85
2023/02/09 13:04:57;;;;;;;6.67;3.83;;;21.70;53.00;;;;;;6217106;23;20766;-84
2023/02/09 13:07:35;;;;;;;4.53;3.40;;;21.60;53.00;;;;;;6219682;23;20888;-84
2023/02/09 13:10:14;;;;;;;5.23;2.47;;;21.60;52.10;;;;;;6217163;23;20394;-90
2023/02/09 13:12:47;;;;;;;6.80;3.60;;;21.60;52.90;;;;;;6217034;23;20413;-90
2023/02/09 13:15:16;;;;;;;4.57;2.83;;;21.60;52.80;;;;;;6217099;23;20389;-87
2023/02/09 13:17:57;;;;;;;4.97;2.83;;;21.60;52.90;;;;;;6216588;23;20402;-86
2023/02/09 13:20:46;;;;;;;3.43;3.07;;;21.60;52.90;;;;;;6217314;23;20391;-85
2023/02/09 13:23:32;;;;;;;5.10;3.20;;;21.60;53.00;;;;;;6217640;23;20471;-91
2023/02/09 13:26:09;;;;;;;3.30;3.00;;;21.60;53.00;;;;;;6216966;23;20939;-84